Time;durP1;ratioP1;P1;durP2;ratioP2;P2;SDS_P1;SDS_P2;PMS_P1;PMS_P2;Temp;Humidity;BMP_temperature;BMP_pressure;BME280_temperature;BME280_humidity;BME280_pressure;Samples;Min_cycle;Max_cycle;Signal;HPM_P1;HPM_P2
2021/11/27 00:03:39;;;;;;;;;;;1.70;99.90;;;;;;8398511;28;19993;-64
2021/11/27 00:07:40;;;;;;;;;;;1.70;99.90;;;;;;8398596;28;19915;-65
2021/11/27 00:11:41;;;;;;;;;;;1.70;99.90;;;;;;8379891;28;19925;-64
2021/11/27 00:15:42;;;;;;;;;;;1.70;99.90;;;;;;8398001;28;19909;-64
2021/11/27 00:19:42;;;;;;;;;;;1.70;99.90;;;;;;8398043;28;19978;-63
2021/11/27 00:23:43;;;;;;;;;;;1.70;99.90;;;;;;8388786;28;19916;-64
2021/11/27 00:27:43;;;;;;;;;;;1.70;99.90;;;;;;8379785;28;19912;-64
2021/11/27 00:31:44;;;;;;;;;;;1.70;99.90;;;;;;8379805;28;20302;-64
2021/11/27 00:35:45;;;;;;;;;;;1.70;99.90;;;;;;8397444;28;20286;-64
2021/11/27 00:39:45;;;;;;;;;;;1.70;99.90;;;;;;8387599;28;19966;-64
2021/11/27 00:43:46;;;;;;;;;;;1.60;99.90;;;;;;8368432;28;19925;-64
2021/11/27 00:47:49;;;;;;;;;;;1.60;99.90;;;;;;8361873;28;19916;-64
2021/11/27 00:51:49;;;;;;;;;;;1.50;99.90;;;;;;8377495;28;19913;-64
2021/11/27 00:55:50;;;;;;;;;;;1.60;99.90;;;;;;8384585;28;19913;-64
2021/11/27 00:59:50;;;;;;;;;;;1.60;99.90;;;;;;8361297;28;19909;-65
2021/11/27 01:03:52;;;;;;;;;;;1.50;99.90;;;;;;8379442;28;20466;-64
2021/11/27 01:07:52;;;;;;;;;;;1.50;99.90;;;;;;8381034;28;19916;-64
2021/11/27 01:11:53;;;;;;;;;;;1.50;99.90;;;;;;8389823;22;20466;-66
2021/11/27 01:15:54;;;;;;;;;;;1.50;99.90;;;;;;8330749;28;19917;-65
2021/11/27 01:19:54;;;;;;;;;;;1.40;99.90;;;;;;8329987;28;20012;-65
2021/11/27 01:23:56;;;;;;;;;;;1.30;99.90;;;;;;8348257;28;20374;-65
2021/11/27 01:27:56;;;;;;;;;;;1.20;99.90;;;;;;8344661;28;20290;-65
2021/11/27 01:31:57;;;;;;;;;;;0.90;99.90;;;;;;8362676;28;20007;-65
2021/11/27 01:35:58;;;;;;;;;;;1.00;99.90;;;;;;8362822;28;19909;-65
2021/11/27 01:39:59;;;;;;;;;;;0.80;99.90;;;;;;8361989;28;19908;-66
2021/11/27 01:44:00;;;;;;;;;;;0.40;99.90;;;;;;8344514;28;20263;-66
2021/11/27 01:48:05;;;;;;;;;;;0.20;99.90;;;;;;8362340;28;19909;-66
2021/11/27 01:52:06;;;;;;;;;;;0.20;99.90;;;;;;8361091;28;19908;-66
2021/11/27 01:56:09;;;;;;;;;;;0.00;99.90;;;;;;8335866;28;20362;-66
2021/11/27 02:00:11;;;;;;;;;;;-0.10;99.90;;;;;;8361479;28;19909;-66
2021/11/27 02:04:12;;;;;;;;;;;0.00;99.90;;;;;;8361502;28;19920;-66
2021/11/27 02:08:12;;;;;;;;;;;0.00;99.90;;;;;;8361642;28;20309;-65
2021/11/27 02:12:13;;;;;;;;;;;0.10;99.90;;;;;;8343330;28;19923;-66
2021/11/27 02:16:13;;;;;;;;;;;0.30;99.90;;;;;;8361100;28;19913;-66
2021/11/27 02:20:14;;;;;;;;;;;0.50;99.90;;;;;;8360066;28;19913;-66
2021/11/27 02:24:16;;;;;;;;;;;0.50;99.90;;;;;;8344316;28;20401;-66
2021/11/27 02:28:16;;;;;;;;;;;0.40;99.90;;;;;;8360821;28;19909;-66
2021/11/27 02:32:17;;;;;;;;;;;0.50;99.90;;;;;;8342784;28;19948;-66
2021/11/27 02:36:17;;;;;;;;;;;0.30;99.90;;;;;;8361068;28;19913;-66
2021/11/27 02:40:18;;;;;;;;;;;0.10;99.90;;;;;;8360115;28;19960;-66
2021/11/27 02:44:26;;;;;;;;;;;0.00;99.90;;;;;;8343165;28;19919;-66
2021/11/27 02:48:27;;;;;;;;;;;-0.20;99.90;;;;;;8342576;28;19955;-66
2021/11/27 02:52:30;;;;;;;;;;;-0.50;99.90;;;;;;8356901;28;20363;-66
2021/11/27 02:56:31;;;;;;;;;;;-0.60;99.90;;;;;;8347887;28;21004;-66
2021/11/27 03:00:31;;;;;;;;;;;-0.40;99.90;;;;;;8334990;28;19925;-66
2021/11/27 03:04:34;;;;;;;;;;;-0.40;99.90;;;;;;8343668;28;20016;-66
2021/11/27 03:08:53;;;;;;;;;;;-0.30;99.90;;;;;;8353233;28;20318;-66
2021/11/27 03:12:53;;;;;;;;;;;-0.30;99.90;;;;;;8338328;28;19971;-66
2021/11/27 03:16:55;;;;;;;;;;;-0.50;99.90;;;;;;8328885;28;20446;-66
2021/11/27 03:20:55;;;;;;;;;;;-0.40;99.90;;;;;;8326554;28;19964;-66
2021/11/27 03:24:56;;;;;;;;;;;-0.60;99.90;;;;;;8327066;28;19917;-66
2021/11/27 03:28:56;;;;;;;;;;;-0.80;99.90;;;;;;8326655;28;19931;-66
2021/11/27 03:32:57;;;;;;;;;;;-0.60;99.90;;;;;;8312020;28;19916;-66
2021/11/27 03:36:57;;;;;;;;;;;-0.70;99.90;;;;;;8333264;28;19913;-66
2021/11/27 03:40:58;;;;;;;;;;;-0.70;99.90;;;;;;8334085;28;19964;-66
2021/11/27 03:44:59;;;;;;;;;;;-0.80;99.90;;;;;;8332655;28;19916;-65
2021/11/27 03:49:00;;;;;;;;;;;-0.50;99.90;;;;;;8332915;28;19913;-66
2021/11/27 03:53:01;;;;;;;;;;;-0.70;99.90;;;;;;8332333;28;19915;-66
2021/11/27 03:57:01;;;;;;;;;;;-0.70;99.90;;;;;;8332637;28;19936;-66
2021/11/27 04:01:07;;;;;;;;;;;-0.40;99.90;;;;;;8332283;28;19920;-66
2021/11/27 04:05:08;;;;;;;;;;;-0.40;99.90;;;;;;8332493;28;19909;-66
2021/11/27 04:09:09;;;;;;;;;;;-0.10;99.90;;;;;;8314389;28;19909;-66
2021/11/27 04:13:10;;;;;;;;;;;0.10;99.90;;;;;;8332826;28;19971;-66
2021/11/27 04:17:10;;;;;;;;;;;0.20;99.90;;;;;;8331771;28;20003;-66
2021/11/27 04:21:11;;;;;;;;;;;0.20;99.90;;;;;;8331595;28;19913;-66
2021/11/27 04:25:12;;;;;;;;;;;0.20;99.90;;;;;;8331766;28;20322;-65
2021/11/27 04:29:12;;;;;;;;;;;0.30;99.90;;;;;;8333902;28;20008;-66
2021/11/27 04:33:13;;;;;;;;;;;0.40;99.90;;;;;;8345161;28;19913;-65
2021/11/27 04:37:15;;;;;;;;;;;0.60;99.90;;;;;;8347709;28;19909;-65
2021/11/27 04:41:15;;;;;;;;;;;0.70;99.90;;;;;;8354130;28;19917;-65
2021/11/27 04:45:16;;;;;;;;;;;0.90;99.90;;;;;;8357175;28;19920;-66
2021/11/27 04:49:17;;;;;;;;;;;0.80;99.90;;;;;;8363135;28;20355;-66
2021/11/27 04:53:18;;;;;;;;;;;1.00;99.90;;;;;;8341666;28;19913;-65
2021/11/27 04:57:18;;;;;;;;;;;1.00;99.90;;;;;;8361561;28;19967;-66
2021/11/27 05:01:22;;;;;;;;;;;0.90;99.90;;;;;;8362242;28;19970;-67
2021/11/27 05:05:23;;;;;;;;;;;0.70;99.90;;;;;;8343992;28;19927;-66
2021/11/27 05:09:24;;;;;;;;;;;0.60;99.90;;;;;;8351513;28;19916;-66
2021/11/27 05:13:24;;;;;;;;;;;0.50;99.90;;;;;;8352599;28;19928;-66
2021/11/27 05:17:25;;;;;;;;;;;0.80;99.90;;;;;;8361644;28;19916;-66
2021/11/27 05:21:25;;;;;;;;;;;0.90;99.90;;;;;;8355906;28;19917;-66
2021/11/27 05:25:26;;;;;;;;;;;0.80;99.90;;;;;;8332155;28;19913;-66
2021/11/27 05:29:27;;;;;;;;;;;0.80;99.90;;;;;;8352643;28;19912;-66
2021/11/27 05:37:46;;;;;;;;;;;0.90;99.90;;;;;;8360303;28;19913;-66
2021/11/27 05:41:46;;;;;;;;;;;1.10;99.90;;;;;;8361406;28;19982;-66
2021/11/27 05:45:47;;;;;;;;;;;1.20;99.90;;;;;;8361945;28;20389;-66
2021/11/27 05:49:48;;;;;;;;;;;1.20;99.90;;;;;;8361810;28;19912;-66
2021/11/27 05:53:50;;;;;;;;;;;1.40;99.90;;;;;;8361755;28;19909;-65
2021/11/27 05:57:50;;;;;;;;;;;1.40;99.90;;;;;;8340446;28;19913;-65
2021/11/27 06:01:52;;;;;;;;;;;1.60;99.90;;;;;;8361131;28;19935;-66
2021/11/27 06:05:52;;;;;;;;;;;1.70;99.90;;;;;;8348188;28;19913;-65
2021/11/27 06:09:53;;;;;;;;;;;1.70;99.90;;;;;;8357001;28;19928;-65
2021/11/27 06:13:53;;;;;;;;;;;1.70;99.90;;;;;;8343250;28;19916;-66
2021/11/27 06:17:54;;;;;;;;;;;1.80;99.90;;;;;;8361032;28;19920;-65
2021/11/27 06:21:54;;;;;;;;;;;1.90;99.90;;;;;;8360628;28;19917;-65
2021/11/27 06:25:55;;;;;;;;;;;1.90;99.90;;;;;;8336993;28;19914;-65
2021/11/27 06:29:56;;;;;;;;;;;2.10;99.90;;;;;;8340312;28;19962;-65
2021/11/27 06:33:56;;;;;;;;;;;2.00;99.90;;;;;;8335946;28;19912;-65
2021/11/27 06:37:57;;;;;;;;;;;2.00;99.90;;;;;;8330165;28;20310;-65
2021/11/27 06:41:57;;;;;;;;;;;1.90;99.90;;;;;;8326738;28;20525;-65
2021/11/27 06:46:00;;;;;;;;;;;1.80;99.90;;;;;;8309734;28;19913;-66
2021/11/27 06:50:00;;;;;;;;;;;1.90;99.90;;;;;;8309333;28;19909;-65
2021/11/27 06:54:01;;;;;;;;;;;1.80;99.90;;;;;;8354022;28;19913;-65
2021/11/27 06:58:01;;;;;;;;;;;1.70;99.90;;;;;;8361866;28;19908;-65
2021/11/27 07:02:02;;;;;;;;;;;1.60;99.90;;;;;;8341693;28;19912;-65
2021/11/27 07:06:03;;;;;;;;;;;1.60;99.90;;;;;;8359479;28;19944;-65
2021/11/27 07:10:04;;;;;;;;;;;1.70;99.90;;;;;;8353549;28;19913;-65
2021/11/27 07:14:05;;;;;;;;;;;1.70;99.90;;;;;;8383115;23;19983;-65
2021/11/27 07:18:05;;;;;;;;;;;1.70;99.90;;;;;;8359241;28;20294;-66
2021/11/27 07:22:06;;;;;;;;;;;1.70;99.90;;;;;;8368274;28;19913;-66
2021/11/27 07:26:06;;;;;;;;;;;1.60;99.90;;;;;;8424066;28;19908;-66
2021/11/27 07:30:07;;;;;;;;;;;1.60;99.90;;;;;;8407592;28;19916;-66
2021/11/27 07:34:07;;;;;;;;;;;1.70;99.90;;;;;;8419215;28;20372;-66
2021/11/27 07:38:08;;;;;;;;;;;1.80;99.90;;;;;;8381384;28;19919;-65
2021/11/27 07:42:08;;;;;;;;;;;1.80;99.90;;;;;;8356491;28;19923;-66
2021/11/27 07:46:11;;;;;;;;;;;1.80;99.90;;;;;;8371804;28;19913;-65
2021/11/27 07:50:12;;;;;;;;;;;1.80;99.90;;;;;;8375318;28;19913;-65
2021/11/27 07:54:12;;;;;;;;;;;1.90;99.90;;;;;;8372927;28;19913;-65
2021/11/27 07:58:13;;;;;;;;;;;1.80;99.90;;;;;;8387546;28;19960;-66
2021/11/27 08:02:13;;;;;;;;;;;1.80;99.90;;;;;;8385256;28;20576;-66
2021/11/27 08:06:14;;;;;;;;;;;1.80;99.90;;;;;;8365865;28;19936;-66
2021/11/27 08:10:15;;;;;;;;;;;2.00;99.90;;;;;;8358425;28;19915;-65
2021/11/27 08:14:16;;;;;;;;;;;2.80;99.90;;;;;;8367064;28;19923;-66
2021/11/27 08:18:16;;;;;;;;;;;3.30;99.90;;;;;;8379202;28;19928;-66
2021/11/27 08:22:16;;;;;;;;;;;3.30;99.90;;;;;;8376611;28;19921;-66
2021/11/27 08:26:17;;;;;;;;;;;3.10;99.90;;;;;;8401370;28;19967;-65
2021/11/27 08:30:18;;;;;;;;;;;3.00;99.90;;;;;;8390563;28;19921;-65
2021/11/27 08:34:19;;;;;;;;;;;2.80;99.90;;;;;;8366317;28;20489;-65
2021/11/27 08:38:19;;;;;;;;;;;2.80;99.90;;;;;;8363839;28;19952;-65
2021/11/27 08:42:21;;;;;;;;;;;2.80;99.90;;;;;;8362485;28;19919;-65
2021/11/27 08:46:22;;;;;;;;;;;2.80;99.90;;;;;;8378081;28;19924;-66
2021/11/27 08:50:22;;;;;;;;;;;2.90;99.90;;;;;;8377300;28;19923;-65
2021/11/27 08:54:23;;;;;;;;;;;2.90;99.90;;;;;;8378047;28;19908;-65
2021/11/27 08:58:23;;;;;;;;;;;3.00;99.90;;;;;;8421353;28;19938;-64
2021/11/27 09:02:24;;;;;;;;;;;3.00;99.90;;;;;;8411145;28;19991;-65
2021/11/27 09:06:25;;;;;;;;;;;3.20;99.90;;;;;;8429738;28;19908;-64
2021/11/27 09:10:25;;;;;;;;;;;3.30;99.90;;;;;;8419527;28;20058;-65
2021/11/27 09:14:26;;;;;;;;;;;3.20;99.90;;;;;;8362304;28;19995;-65
2021/11/27 09:18:29;;;;;;;;;;;3.50;99.90;;;;;;8344295;28;20566;-65
2021/11/27 09:22:29;;;;;;;;;;;3.40;99.90;;;;;;8345725;28;19913;-65
2021/11/27 09:26:31;;;;;;;;;;;3.40;99.90;;;;;;8384478;28;19912;-65
2021/11/27 09:30:31;;;;;;;;;;;3.40;99.90;;;;;;8363524;28;19916;-65
2021/11/27 09:34:32;;;;;;;;;;;3.40;99.90;;;;;;8383303;28;20444;-66
2021/11/27 09:38:33;;;;;;;;;;;3.40;99.90;;;;;;8372161;28;19959;-65
2021/11/27 09:42:34;;;;;;;;;;;3.50;99.90;;;;;;8377430;28;19913;-65
2021/11/27 09:46:36;;;;;;;;;;;3.80;99.90;;;;;;8377325;28;20003;-65
2021/11/27 09:50:36;;;;;;;;;;;4.00;99.90;;;;;;8361452;28;19909;-65
2021/11/27 09:54:37;;;;;;;;;;;4.20;99.90;;;;;;8343218;28;19967;-65
2021/11/27 09:58:38;;;;;;;;;;;4.10;99.90;;;;;;8400456;28;19920;-65
2021/11/27 10:02:40;;;;;;;;;;;4.00;99.90;;;;;;8359521;28;20410;-65
2021/11/27 10:06:45;;;;;;;;;;;4.00;99.90;;;;;;8374136;28;19952;-64
2021/11/27 10:10:45;;;;;;;;;;;3.80;99.90;;;;;;8375192;28;19939;-65
2021/11/27 10:14:46;;;;;;;;;;;3.70;99.90;;;;;;8375786;28;20000;-65
2021/11/27 10:19:07;;;;;;;;;;;3.60;99.90;;;;;;8374024;28;19920;-65
2021/11/27 10:23:08;;;;;;;;;;;3.60;99.90;;;;;;8375572;28;19962;-65
2021/11/27 10:27:19;;;;;;;;;;;3.70;99.90;;;;;;8377499;28;20391;-65
2021/11/27 10:31:27;;;;;;;;;;;3.90;99.90;;;;;;8375729;28;19920;-65
2021/11/27 10:35:27;;;;;;;;;;;4.10;99.90;;;;;;8357439;28;19920;-65
2021/11/27 10:39:28;;;;;;;;;;;4.10;99.90;;;;;;8357513;28;19920;-65
2021/11/27 10:43:28;;;;;;;;;;;4.10;99.90;;;;;;8374482;28;19917;-65
2021/11/27 10:47:29;;;;;;;;;;;4.10;99.90;;;;;;8375246;28;20375;-65
2021/11/27 10:51:30;;;;;;;;;;;4.10;99.90;;;;;;8375527;28;19999;-65
2021/11/27 10:55:32;;;;;;;;;;;4.20;99.90;;;;;;8377487;28;19909;-64
2021/11/27 10:59:39;;;;;;;;;;;4.50;99.90;;;;;;8379167;28;20015;-65
2021/11/27 11:03:39;;;;;;;;;;;4.40;99.90;;;;;;8377735;28;20378;-64
2021/11/27 11:07:40;;;;;;;;;;;4.10;99.90;;;;;;8391538;28;19919;-64
2021/11/27 11:11:41;;;;;;;;;;;3.80;99.90;;;;;;8392533;28;19920;-64
2021/11/27 11:15:43;;;;;;;;;;;3.80;99.90;;;;;;8393492;28;19962;-65
2021/11/27 11:19:43;;;;;;;;;;;3.80;99.90;;;;;;8388460;28;20290;-64
2021/11/27 11:23:44;;;;;;;;;;;3.90;99.90;;;;;;8357309;28;19971;-65
2021/11/27 11:27:45;;;;;;;;;;;3.90;99.90;;;;;;8383744;28;19913;-65
2021/11/27 11:31:46;;;;;;;;;;;4.00;99.90;;;;;;8350059;28;19999;-65
2021/11/27 11:35:46;;;;;;;;;;;4.10;99.90;;;;;;8377051;28;19936;-64
2021/11/27 11:39:47;;;;;;;;;;;4.20;99.90;;;;;;8375366;28;19921;-65
2021/11/27 11:43:49;;;;;;;;;;;4.30;99.90;;;;;;8363586;28;19959;-64
2021/11/27 11:47:49;;;;;;;;;;;4.30;99.90;;;;;;8375397;28;20383;-65
2021/11/27 11:51:54;;;;;;;;;;;4.40;99.90;;;;;;8376209;28;19920;-65
2021/11/27 11:55:56;;;;;;;;;;;4.80;99.90;;;;;;8381858;28;19915;-65
2021/11/27 11:59:56;;;;;;;;;;;7.50;99.90;;;;;;8369202;28;19915;-66
2021/11/27 12:03:59;;;;;;;;;;;10.60;99.90;;;;;;8381202;28;19952;-65
2021/11/27 12:08:01;;;;;;;;;;;11.30;99.90;;;;;;8380307;28;19936;-65
2021/11/27 12:12:16;;;;;;;;;;;10.70;99.90;;;;;;8371839;28;19924;-65
2021/11/27 12:16:16;;;;;;;;;;;8.60;99.90;;;;;;8364516;28;19916;-65
2021/11/27 12:20:17;;;;;;;;;;;6.50;99.90;;;;;;8370387;28;20386;-67
2021/11/27 12:24:22;;;;;;;;;;;5.50;99.90;;;;;;8360984;28;19916;-64
2021/11/27 12:28:23;;;;;;;;;;;5.20;99.90;;;;;;8382823;28;20287;-65
2021/11/27 12:32:35;;;;;;;;;;;5.20;99.90;;;;;;8361537;28;19920;-62
2021/11/27 12:36:38;;;;;;;;;;;5.00;99.90;;;;;;8379742;28;19920;-64
2021/11/27 12:40:40;;;;;;;;;;;4.90;99.90;;;;;;8379134;28;19965;-63
2021/11/27 12:44:44;;;;;;;;;;;4.70;99.90;;;;;;8376032;28;19943;-63
2021/11/27 12:48:45;;;;;;;;;;;4.60;99.90;;;;;;8389375;28;20580;-64
2021/11/27 12:52:46;;;;;;;;;;;4.50;99.90;;;;;;8382151;28;19912;-63
2021/11/27 12:56:57;;;;;;;;;;;4.30;99.90;;;;;;8388972;28;19915;-63
2021/11/27 13:00:58;;;;;;;;;;;4.20;99.90;;;;;;8429000;28;19970;-63
2021/11/27 13:04:59;;;;;;;;;;;4.80;99.90;;;;;;8377333;28;19923;-62
2021/11/27 13:09:13;;;;;;;;;;;4.90;99.90;;;;;;8377750;28;19939;-63
2021/11/27 13:13:19;;;;;;;;;;;4.60;99.90;;;;;;8402224;22;19939;-64
2021/11/27 13:17:20;;;;;;;;;;;4.40;99.90;;;;;;8401494;28;19926;-64
2021/11/27 13:21:24;;;;;;;;;;;4.30;99.90;;;;;;8375339;28;19995;-64
2021/11/27 13:25:25;;;;;;;;;;;4.20;99.90;;;;;;8378494;28;19908;-64
2021/11/27 13:29:28;;;;;;;;;;;4.00;99.90;;;;;;8402810;28;20011;-64
2021/11/27 13:33:47;;;;;;;;;;;3.90;99.90;;;;;;8394672;28;19909;-64
2021/11/27 13:37:49;;;;;;;;;;;3.80;99.90;;;;;;8376697;28;19981;-64
2021/11/27 13:42:04;;;;;;;;;;;3.70;99.90;;;;;;8395767;28;19946;-64
2021/11/27 13:46:05;;;;;;;;;;;3.90;99.90;;;;;;8391961;28;19908;-64
2021/11/27 13:50:14;;;;;;;;;;;4.70;99.90;;;;;;8407485;28;20302;-64
2021/11/27 13:54:14;;;;;;;;;;;5.30;99.90;;;;;;8426245;28;20438;-64
2021/11/27 13:58:17;;;;;;;;;;;5.30;99.90;;;;;;8401164;28;19915;-64
2021/11/27 14:02:19;;;;;;;;;;;5.00;99.90;;;;;;8408636;28;19916;-64
2021/11/27 14:06:19;;;;;;;;;;;4.80;99.90;;;;;;8425065;28;19914;-64
2021/11/27 14:10:21;;;;;;;;;;;4.50;99.90;;;;;;8424923;28;19908;-64
2021/11/27 14:14:21;;;;;;;;;;;4.30;99.90;;;;;;8418493;28;20417;-64
2021/11/27 14:18:24;;;;;;;;;;;4.20;99.90;;;;;;8406803;28;19908;-64
2021/11/27 14:22:25;;;;;;;;;;;4.10;99.90;;;;;;8392738;28;19912;-64
2021/11/27 14:26:26;;;;;;;;;;;4.00;99.90;;;;;;8379081;28;19995;-64
2021/11/27 14:30:33;;;;;;;;;;;3.90;99.90;;;;;;8427104;28;19912;-64
2021/11/27 14:34:37;;;;;;;;;;;3.80;99.90;;;;;;8426716;28;19915;-64
2021/11/27 14:38:39;;;;;;;;;;;3.80;99.90;;;;;;8421300;28;19919;-64
2021/11/27 14:42:39;;;;;;;;;;;3.80;99.90;;;;;;8424032;28;19923;-64
2021/11/27 14:46:42;;;;;;;;;;;3.70;99.90;;;;;;8425525;28;19916;-64
2021/11/27 14:50:51;;;;;;;;;;;3.60;99.90;;;;;;8407260;28;19934;-64
2021/11/27 14:55:02;;;;;;;;;;;3.60;99.90;;;;;;8425476;28;19915;-64
2021/11/27 14:59:03;;;;;;;;;;;3.40;99.90;;;;;;8416600;28;20374;-64
2021/11/27 15:03:03;;;;;;;;;;;3.40;99.90;;;;;;8401897;28;19971;-64
2021/11/27 15:07:04;;;;;;;;;;;3.40;99.90;;;;;;8390119;28;19916;-64
2021/11/27 15:11:05;;;;;;;;;;;3.30;99.90;;;;;;8391278;28;19916;-64
2021/11/27 15:15:06;;;;;;;;;;;3.20;99.90;;;;;;8373753;28;19917;-64
2021/11/27 15:19:06;;;;;;;;;;;3.20;99.90;;;;;;8410210;28;19916;-64
2021/11/27 15:23:07;;;;;;;;;;;3.10;99.90;;;;;;8418527;28;19920;-64
2021/11/27 15:27:08;;;;;;;;;;;3.20;99.90;;;;;;8412685;28;19912;-64
2021/11/27 15:31:09;;;;;;;;;;;3.20;99.90;;;;;;8404345;28;19944;-64
2021/11/27 15:35:10;;;;;;;;;;;3.20;99.90;;;;;;8401752;28;19924;-64
2021/11/27 15:39:11;;;;;;;;;;;3.10;99.90;;;;;;8410838;28;19919;-64
2021/11/27 15:43:11;;;;;;;;;;;3.10;99.90;;;;;;8410631;28;19916;-64
2021/11/27 15:47:12;;;;;;;;;;;3.20;99.90;;;;;;8414356;28;20003;-64
2021/11/27 15:51:14;;;;;;;;;;;3.10;99.90;;;;;;8413266;28;19912;-64
2021/11/27 15:55:15;;;;;;;;;;;3.10;99.90;;;;;;8412492;28;19994;-64
2021/11/27 15:59:17;;;;;;;;;;;3.00;99.90;;;;;;8422448;28;19974;-66
2021/11/27 16:03:17;;;;;;;;;;;2.90;99.90;;;;;;8410844;28;19923;-66
2021/11/27 16:07:18;;;;;;;;;;;2.90;99.90;;;;;;8444599;28;19994;-66
2021/11/27 16:11:18;;;;;;;;;;;2.80;99.90;;;;;;8450772;28;19912;-66
2021/11/27 16:15:19;;;;;;;;;;;2.70;99.90;;;;;;8462699;28;19916;-66
2021/11/27 16:19:19;;;;;;;;;;;2.70;99.90;;;;;;8463147;28;20383;-66
2021/11/27 16:23:20;;;;;;;;;;;2.70;99.90;;;;;;8445081;28;20294;-66
2021/11/27 16:27:21;;;;;;;;;;;2.80;99.90;;;;;;8437048;28;19918;-66
2021/11/27 16:31:22;;;;;;;;;;;2.80;99.90;;;;;;8424268;28;19916;-66
2021/11/27 16:35:23;;;;;;;;;;;2.80;99.90;;;;;;8397294;28;19916;-66
2021/11/27 16:39:23;;;;;;;;;;;2.70;99.90;;;;;;8418407;28;20416;-66
2021/11/27 16:43:24;;;;;;;;;;;2.70;99.90;;;;;;8415873;28;19916;-66
2021/11/27 16:47:24;;;;;;;;;;;2.80;99.90;;;;;;8396664;28;19908;-67
2021/11/27 16:51:25;;;;;;;;;;;2.90;99.90;;;;;;8435574;28;19947;-67
2021/11/27 16:55:26;;;;;;;;;;;2.80;99.90;;;;;;8435733;28;19958;-66
2021/11/27 16:59:26;;;;;;;;;;;2.80;99.90;;;;;;8434322;28;19922;-66
2021/11/27 17:03:27;;;;;;;;;;;2.80;99.90;;;;;;8444698;28;20365;-66
2021/11/27 17:07:27;;;;;;;;;;;2.80;99.90;;;;;;8445508;28;19929;-67
2021/11/27 17:11:28;;;;;;;;;;;2.80;99.90;;;;;;8463320;28;19908;-67
2021/11/27 17:15:28;;;;;;;;;;;2.80;99.90;;;;;;8456105;28;19957;-66
2021/11/27 17:19:29;;;;;;;;;;;2.90;99.90;;;;;;8399992;28;19916;-66
2021/11/27 17:23:29;;;;;;;;;;;3.00;99.90;;;;;;8398788;28;19917;-66
2021/11/27 17:27:30;;;;;;;;;;;2.90;99.90;;;;;;8386805;28;19912;-66
2021/11/27 17:31:39;;;;;;;;;;;2.90;99.90;;;;;;8377712;28;20362;-66
2021/11/27 17:35:39;;;;;;;;;;;2.90;99.90;;;;;;8403165;28;20026;-66
2021/11/27 17:39:39;;;;;;;;;;;2.90;99.90;;;;;;8427564;28;20263;-66
2021/11/27 17:43:40;;;;;;;;;;;2.80;99.90;;;;;;8410755;28;20371;-66
2021/11/27 17:47:44;;;;;;;;;;;2.80;99.90;;;;;;8411648;28;20007;-66
2021/11/27 17:51:44;;;;;;;;;;;2.70;99.90;;;;;;8422849;28;19920;-66
2021/11/27 17:55:45;;;;;;;;;;;2.70;99.90;;;;;;8423964;28;19919;-67
2021/11/27 17:59:45;;;;;;;;;;;2.60;99.90;;;;;;8446309;28;19918;-65
2021/11/27 18:03:47;;;;;;;;;;;2.50;99.90;;;;;;8459345;28;19972;-66
2021/11/27 18:07:47;;;;;;;;;;;2.60;99.90;;;;;;8442945;28;19915;-66
2021/11/27 18:11:48;;;;;;;;;;;2.50;99.90;;;;;;8449015;28;19947;-66
2021/11/27 18:15:49;;;;;;;;;;;2.40;99.90;;;;;;8423266;28;20412;-66
2021/11/27 18:19:49;;;;;;;;;;;2.30;99.90;;;;;;8418953;28;19912;-67
2021/11/27 18:23:51;;;;;;;;;;;2.20;99.90;;;;;;8447669;28;19994;-66
2021/11/27 18:27:51;;;;;;;;;;;2.20;99.90;;;;;;8419819;28;20314;-66
2021/11/27 18:31:51;;;;;;;;;;;2.20;99.90;;;;;;8457635;28;19937;-66
2021/11/27 18:35:57;;;;;;;;;;;2.10;99.90;;;;;;8441401;28;19924;-67
2021/11/27 18:39:59;;;;;;;;;;;2.10;99.90;;;;;;8405075;28;19938;-67
2021/11/27 18:44:00;;;;;;;;;;;2.00;99.90;;;;;;8406325;28;19916;-67
2021/11/27 18:48:00;;;;;;;;;;;1.90;99.90;;;;;;8395496;28;20449;-67
2021/11/27 18:52:02;;;;;;;;;;;1.70;99.90;;;;;;8389867;28;19923;-67
2021/11/27 18:56:03;;;;;;;;;;;1.80;99.90;;;;;;8415995;28;20274;-66
2021/11/27 19:00:04;;;;;;;;;;;1.60;99.90;;;;;;8395742;28;19912;-66
2021/11/27 19:04:05;;;;;;;;;;;1.50;99.90;;;;;;8397875;28;19947;-66
2021/11/27 19:08:05;;;;;;;;;;;1.30;99.90;;;;;;8418371;28;19916;-66
2021/11/27 19:12:06;;;;;;;;;;;1.30;99.90;;;;;;8373870;28;19917;-67
2021/11/27 19:16:07;;;;;;;;;;;1.30;99.90;;;;;;8401904;28;19969;-66
2021/11/27 19:24:10;;;;;;;;;;;1.30;99.90;;;;;;8353769;28;19943;-66
2021/11/27 19:28:11;;;;;;;;;;;1.10;99.90;;;;;;8347730;28;19909;-67
2021/11/27 19:32:11;;;;;;;;;;;1.00;99.90;;;;;;8323117;28;19988;-66
2021/11/27 19:36:13;;;;;;;;;;;0.80;99.90;;;;;;8328939;28;19913;-66
2021/11/27 19:40:14;;;;;;;;;;;0.70;99.90;;;;;;8333037;28;20723;-66
2021/11/27 19:44:15;;;;;;;;;;;1.00;99.90;;;;;;8333973;28;20414;-66
2021/11/27 19:48:15;;;;;;;;;;;0.70;99.90;;;;;;8307923;28;19941;-66
2021/11/27 19:52:16;;;;;;;;;;;0.70;99.90;;;;;;8344130;28;19948;-66
2021/11/27 19:56:18;;;;;;;;;;;0.60;99.90;;;;;;8347372;28;19949;-66
2021/11/27 20:00:19;;;;;;;;;;;1.00;99.90;;;;;;8329829;28;19909;-66
2021/11/27 20:04:19;;;;;;;;;;;0.70;99.90;;;;;;8322881;28;20458;-66
2021/11/27 20:08:20;;;;;;;;;;;0.60;99.90;;;;;;8323261;28;19924;-67
2021/11/27 20:12:21;;;;;;;;;;;1.00;99.90;;;;;;8353918;28;20367;-66
2021/11/27 20:16:23;;;;;;;;;;;0.90;99.90;;;;;;8360700;28;19913;-66
2021/11/27 20:20:23;;;;;;;;;;;0.70;99.90;;;;;;8361401;28;19909;-66
2021/11/27 20:24:24;;;;;;;;;;;0.50;99.90;;;;;;8361730;28;19971;-66
2021/11/27 20:28:24;;;;;;;;;;;0.40;99.90;;;;;;8341072;28;19924;-66
2021/11/27 20:32:25;;;;;;;;;;;0.30;99.90;;;;;;8326355;28;20003;-66
2021/11/27 20:36:26;;;;;;;;;;;0.10;99.90;;;;;;8327058;28;20016;-67
2021/11/27 20:40:27;;;;;;;;;;;-0.10;99.90;;;;;;8343302;28;19921;-66
2021/11/27 20:44:30;;;;;;;;;;;-0.10;99.90;;;;;;8325889;28;20291;-66
2021/11/27 20:48:31;;;;;;;;;;;0.20;99.90;;;;;;8333048;28;19913;-66
2021/11/27 20:52:31;;;;;;;;;;;0.10;99.90;;;;;;8327327;28;19916;-66
2021/11/27 20:56:33;;;;;;;;;;;0.40;99.90;;;;;;8331788;28;19958;-66
2021/11/27 21:00:33;;;;;;;;;;;0.20;99.90;;;;;;8332772;28;19959;-66
2021/11/27 21:04:34;;;;;;;;;;;0.50;99.90;;;;;;8327577;28;19975;-66
2021/11/27 21:08:34;;;;;;;;;;;0.50;99.90;;;;;;8327408;28;19913;-66
2021/11/27 21:12:35;;;;;;;;;;;0.20;99.90;;;;;;8341816;28;20382;-66
2021/11/27 21:16:36;;;;;;;;;;;0.20;99.90;;;;;;8359971;28;19912;-66
2021/11/27 21:20:37;;;;;;;;;;;0.40;99.90;;;;;;8359449;28;19920;-67
2021/11/27 21:24:37;;;;;;;;;;;0.30;99.90;;;;;;8359724;28;19916;-66
2021/11/27 21:28:39;;;;;;;;;;;0.40;99.90;;;;;;8338239;28;19920;-66
2021/11/27 21:32:40;;;;;;;;;;;0.20;99.90;;;;;;8326579;28;19910;-66
2021/11/27 21:36:40;;;;;;;;;;;0.20;99.90;;;;;;8309065;28;19978;-66
2021/11/27 21:40:43;;;;;;;;;;;0.10;99.90;;;;;;8324941;28;22323;-66
2021/11/27 21:44:43;;;;;;;;;;;0.00;99.90;;;;;;8338171;28;19913;-66
2021/11/27 21:48:44;;;;;;;;;;;0.10;99.90;;;;;;8324065;28;19909;-66
2021/11/27 21:52:44;;;;;;;;;;;0.40;99.90;;;;;;8358484;28;20408;-66
2021/11/27 21:56:46;;;;;;;;;;;0.60;99.90;;;;;;8332341;28;19913;-65
2021/11/27 22:00:47;;;;;;;;;;;0.50;99.90;;;;;;8328785;28;19910;-66
2021/11/27 22:04:49;;;;;;;;;;;0.40;99.90;;;;;;8325098;28;19975;-66
2021/11/27 22:08:49;;;;;;;;;;;0.40;99.90;;;;;;8309169;28;19913;-66
2021/11/27 22:12:50;;;;;;;;;;;0.30;99.90;;;;;;8357513;28;20062;-66
2021/11/27 22:16:50;;;;;;;;;;;0.20;99.90;;;;;;8355906;28;20027;-66
2021/11/27 22:20:51;;;;;;;;;;;0.40;99.90;;;;;;8319253;28;20303;-66
2021/11/27 22:24:51;;;;;;;;;;;0.40;99.90;;;;;;8325287;28;19920;-66
2021/11/27 22:28:52;;;;;;;;;;;0.10;99.90;;;;;;8333985;28;19909;-66
2021/11/27 22:32:52;;;;;;;;;;;0.30;99.90;;;;;;8324420;28;19913;-66
2021/11/27 22:36:52;;;;;;;;;;;0.30;99.90;;;;;;8323919;28;19913;-66
2021/11/27 22:40:53;;;;;;;;;;;0.20;99.90;;;;;;8324058;28;19928;-66
2021/11/27 22:44:54;;;;;;;;;;;0.40;99.90;;;;;;8326741;28;19924;-66
2021/11/27 22:48:55;;;;;;;;;;;0.40;99.90;;;;;;8346865;28;20289;-66
2021/11/27 22:52:56;;;;;;;;;;;0.10;99.90;;;;;;8355976;28;20290;-66
2021/11/27 22:56:57;;;;;;;;;;;0.10;99.90;;;;;;8330412;28;19912;-66
2021/11/27 23:01:05;;;;;;;;;;;0.00;99.90;;;;;;8319421;28;20533;-66
2021/11/27 23:05:06;;;;;;;;;;;-0.20;99.90;;;;;;8323629;28;19913;-66
2021/11/27 23:09:06;;;;;;;;;;;-0.30;99.90;;;;;;8327163;28;19984;-66
2021/11/27 23:13:07;;;;;;;;;;;-0.20;99.90;;;;;;8339192;28;20012;-66
2021/11/27 23:17:07;;;;;;;;;;;-0.30;99.90;;;;;;8341915;28;19921;-66
2021/11/27 23:21:10;;;;;;;;;;;0.20;99.90;;;;;;8316877;28;19947;-66
2021/11/27 23:25:10;;;;;;;;;;;0.10;99.90;;;;;;8321800;28;19917;-66
2021/11/27 23:29:13;;;;;;;;;;;0.00;99.90;;;;;;8340260;28;20298;-66
2021/11/27 23:33:13;;;;;;;;;;;-0.20;99.90;;;;;;8346412;28;19912;-66
2021/11/27 23:37:14;;;;;;;;;;;0.00;99.90;;;;;;8334863;28;19928;-67
2021/11/27 23:41:15;;;;;;;;;;;0.20;99.90;;;;;;8354916;28;19959;-67
2021/11/27 23:45:17;;;;;;;;;;;0.20;99.90;;;;;;8352471;28;20378;-67
2021/11/27 23:49:17;;;;;;;;;;;0.00;99.90;;;;;;8354422;28;19919;-66
2021/11/27 23:53:18;;;;;;;;;;;-0.10;99.90;;;;;;8364189;28;19913;-66